Ana Sayfa
METAR-TAF:

METAR-TAF

Havaalanları :

Gökçeada Havalimanı

Gökçeada, Türkiye

Enlem: 40-12-04N, Boylam: 25-52-56E, yükseklik: 22 m

Güncel hava durumu gözlemi

Rapor saat 07:50 UTC de 1 saat ve 6 dakika önce yapıldı.
Rüzgar batı/kuzeybatıdan 10 kt
Sıcaklık 16°C
Nem 88%
Basınç 1010 hPa
Görüş mesafesi 10 km veya daha fazla
1200 ft yükseklikte az bulutlu
2500 ft yükseklikte parçalı bulutlu
10000 ft yükseklikte parçalı çok bulutlu

METAR: LTFK 190750Z 30010KT 9999 FEW012 SCT025 BKN100 16/14 Q1010

Saat: 11:56 (08:56 UTC)

Tahmin

Rapor saat 07:40 UTC de 1 saat ve 16 dakika önce yapıldı.
Ayın 19'si saat 09 UTC'den ayın 19'si saat 18 UTC'ye kadar geçerli Tahmin
Rüzgar batı/güneybatıdan 8 kt
Görüş mesafesi 10 km veya daha fazla
2500 ft yükseklikte parçalı bulutlu
10000 ft yükseklikte parçalı çok bulutlu

TAF: LTFK 190740Z 1909/1918 25008KT 9999 SCT025 BKN100

4.000'den fazla havaalanı için hava durumu gözlemleri ve tahminleri (METAR ve TAF raporları).

Kullanılabilir istasyonlar harita üzerinde sarı ve kırmızı noktalarla gösterilir.

İstasyonun adını görmek için fareyi noktanın üzerinde gezdirin.

Sonrasında hava gözlem ve tahminlerini görmek için tıklayın.

Haritayı değiştirmek için: yaklaştırmak için siyah artı işaretli yeşil düğmeye ve uzaklaştırmak için de eksi işaretli düğmeye hızla tıklayın; bitişik haritalar için yeşil okları kullanın.


METAR-TAF: